GTI8093 KLAX-KMIA
Flight info
| Callsign | GTI8093 |
|---|---|
| Flight time | N/A |
| Altitude | 35000 |
| Route | DOTSS2 CNERY BLH SALOM EWM CRGER/N0482F370 IAH J86 LEV BACCA Y290 GAWKS FROGZ4 |
| Aircraft | B748/H-SDE3FGHIM1M2RWXY/LB1 |
Departure
| Time | 2026-04-23 02:02 |
|---|---|
| Airport | Los Angeles International Airport (KLAX) |
Arrival
| Time | N/A |
|---|---|
| Airport | Miami International Airport (KMIA) |
| Time | Latitude | Longitude | Altitude | Speed | Heading |
|---|---|---|---|---|---|
| 2026-04-23 01:31 | 33.93320 | -118.40294 | 127 ft | 0 kts | 174° |
| 2026-04-23 01:49 | 33.93328 | -118.40295 | 129 ft | 2 kts | 171° |
| 2026-04-23 01:50 | 33.93344 | -118.40298 | 132 ft | 2 kts | 171° |
| 2026-04-23 01:50 | 33.93360 | -118.40302 | 132 ft | 2 kts | 167° |
| 2026-04-23 01:50 | 33.93365 | -118.40303 | 127 ft | 0 kts | 165° |
| 2026-04-23 01:50 | 33.93368 | -118.40304 | 127 ft | 2 kts | 164° |
| 2026-04-23 01:51 | 33.93371 | -118.40305 | 132 ft | 0 kts | 162° |
| 2026-04-23 01:51 | 33.93378 | -118.40308 | 132 ft | 2 kts | 159° |
| 2026-04-23 01:51 | 33.93393 | -118.40316 | 132 ft | 2 kts | 147° |
| 2026-04-23 01:52 | 33.93406 | -118.40329 | 132 ft | 2 kts | 119° |
| 2026-04-23 01:52 | 33.93411 | -118.40347 | 127 ft | 2 kts | 88° |
| 2026-04-23 01:52 | 33.93411 | -118.40356 | 132 ft | 0 kts | 82° |
| 2026-04-23 01:52 | 33.93410 | -118.40357 | 132 ft | 0 kts | 82° |
| 2026-04-23 01:55 | 33.93411 | -118.40356 | 132 ft | 0 kts | 82° |
| 2026-04-23 01:55 | 33.93411 | -118.40350 | 132 ft | 1 kts | 82° |
| 2026-04-23 01:56 | 33.93412 | -118.40342 | 128 ft | 0 kts | 85° |
| 2026-04-23 01:56 | 33.93412 | -118.40337 | 129 ft | 1 kts | 86° |
| 2026-04-23 01:56 | 33.93412 | -118.40330 | 132 ft | 1 kts | 88° |
| 2026-04-23 01:56 | 33.93412 | -118.40319 | 132 ft | 2 kts | 88° |
| 2026-04-23 01:57 | 33.93414 | -118.40270 | 132 ft | 8 kts | 87° |
| 2026-04-23 01:57 | 33.93419 | -118.40186 | 132 ft | 16 kts | 84° |
| 2026-04-23 01:57 | 33.93432 | -118.40042 | 130 ft | 18 kts | 84° |
| 2026-04-23 01:57 | 33.93447 | -118.39884 | 132 ft | 20 kts | 83° |
| 2026-04-23 01:58 | 33.93468 | -118.39685 | 129 ft | 28 kts | 82° |
| 2026-04-23 01:58 | 33.93491 | -118.39463 | 132 ft | 26 kts | 83° |
| 2026-04-23 01:58 | 33.93512 | -118.39254 | 125 ft | 25 kts | 83° |
| 2026-04-23 01:58 | 33.93534 | -118.39049 | 125 ft | 25 kts | 83° |
| 2026-04-23 01:59 | 33.93556 | -118.38829 | 132 ft | 30 kts | 83° |
| 2026-04-23 01:59 | 33.93581 | -118.38581 | 129 ft | 30 kts | 83° |
| 2026-04-23 01:59 | 33.93603 | -118.38363 | 132 ft | 21 kts | 82° |
| 2026-04-23 01:59 | 33.93627 | -118.38297 | 127 ft | 4 kts | 46° |
| 2026-04-23 02:00 | 33.93633 | -118.38292 | 127 ft | 0 kts | 37° |
| 2026-04-23 02:01 | 33.93678 | -118.38284 | 128 ft | 16 kts | 1° |
| 2026-04-23 02:01 | 33.93725 | -118.38322 | 127 ft | 5 kts | 292° |
| 2026-04-23 02:01 | 33.93727 | -118.38368 | 125 ft | 13 kts | 265° |
| 2026-04-23 02:01 | 33.93697 | -118.38689 | 129 ft | 78 kts | 262° |
| 2026-04-23 02:02 | 33.93594 | -118.39665 | 134 ft | 155 kts | 262° |
| 2026-04-23 02:02 | 33.93419 | -118.41089 | 483 ft | 181 kts | 261° |
| 2026-04-23 02:02 | 33.93218 | -118.42677 | 953 ft | 196 kts | 261° |
| 2026-04-23 02:02 | 33.93009 | -118.44298 | 1710 ft | 201 kts | 264° |
| 2026-04-23 02:03 | 33.92868 | -118.46027 | 2276 ft | 211 kts | 264° |
| 2026-04-23 02:03 | 33.92329 | -118.47677 | 2919 ft | 220 kts | 236° |
| 2026-04-23 02:03 | 33.91227 | -118.49075 | 3174 ft | 246 kts | 223° |
| 2026-04-23 02:03 | 33.89907 | -118.50426 | 3750 ft | 251 kts | 227° |
| 2026-04-23 02:04 | 33.88745 | -118.52029 | 4337 ft | 261 kts | 234° |
| 2026-04-23 02:04 | 33.87643 | -118.53812 | 5022 ft | 269 kts | 234° |
| 2026-04-23 02:04 | 33.86270 | -118.55351 | 5833 ft | 277 kts | 210° |
| 2026-04-23 02:04 | 33.84404 | -118.55974 | 6654 ft | 285 kts | 182° |
| 2026-04-23 02:05 | 33.82421 | -118.55645 | 7424 ft | 291 kts | 169° |
| 2026-04-23 02:05 | 33.80453 | -118.55010 | 8240 ft | 295 kts | 168° |
| 2026-04-23 02:05 | 33.78454 | -118.54400 | 9055 ft | 298 kts | 171° |
| 2026-04-23 02:05 | 33.76414 | -118.53872 | 9870 ft | 302 kts | 173° |
| 2026-04-23 02:06 | 33.74331 | -118.53341 | 10463 ft | 313 kts | 173° |
| 2026-04-23 02:06 | 33.72127 | -118.52677 | 10640 ft | 340 kts | 161° |
| 2026-04-23 02:06 | 33.70094 | -118.51138 | 11201 ft | 355 kts | 139° |